MYNNKFLL

Guest
Details From MYNN - Nassau Intl
To KFLL - Fort Lauderdale Hollywood Intl
Flight Number -
Tags Generated
Created
Modified
Stats Distance 158 nm / 292 km
Max Altitude 0 ft / 0 m
Waypoints 2
Social Downloads 3
Likes 0
Share VATSIM

Download

Looking for another format? Having issues loading an existing format? Contact us
Advertisement - Login to hide

Notes

Generated

Route

MYNN KFLL

ID Type Via Altitude Latitude Longitude Leg Dist Tot Dist Heading (true) Name
O MYNN APT - 0 ft / 0 m 25.03595˚ -77.48200˚ - 0 nm - -
O KFLL APT - 0 ft / 0 m 26.06598˚ -80.16032˚ 157 nm 157 nm 294° / 293° -

Altitude Profile

Advertisement - Login to hide

MYNN

Details ICAO MYNN (NAS)
Name Nassau Intl
Region Bahamas
Timezone America/Nassau (UTC-5.0)
Stats Elevation 16 ft / 5 m (AMSL)
Location 25.038596° -77.466621°
Runways 2
Magnetic Variation 8.218° W

METAR

MYNN 131700Z 30007KT 9999 SCT025 24/14 A3005

Decode

TAF

TAF MYNN 131120Z 1312/1412 27010G20KT 9999 SCT020 BECMG 1400/1402 VRB02KT

Decode

Departure Runways

ID Width Length Bearing (true) Bearing (mag) Surface Threshold Offset Overrun Length
09 151 ft / 46 m 8,311 ft / 2,533 m 89.62° 97.84° Asphalt 0 ft / 0 m 0 ft / 0 m
14 151 ft / 46 m 11,364 ft / 3,464 m 134.83° 143.05° Asphalt 226 ft / 69 m 0 ft / 0 m
27 151 ft / 46 m 8,311 ft / 2,533 m 269.64° 277.86° Asphalt 0 ft / 0 m 0 ft / 0 m
32 151 ft / 46 m 11,364 ft / 3,464 m 314.84° 323.06° Asphalt 0 ft / 0 m 0 ft / 0 m

KFLL

Details ICAO KFLL (FLL)
Name Fort Lauderdale Hollywood Intl
Region United States
Timezone America/New_York (UTC-5.0)
Stats Elevation 9 ft / 3 m (AMSL)
Location 26.071638° -80.152694°
Runways 2
Magnetic Variation 6.766° W

METAR

KFLL 131653Z 35007KT 10SM CLR 17/03 A3009 RMK AO2 SLP190 T01720033

Decode

TAF

TAF AMD KFLL 131503Z 1315/1418 33009KT P6SM SKC FM140100 VRB03KT P6SM SKC FM141400 28006KT P6SM SKC

Decode

Destination Runways

ID Width Length Bearing (true) Bearing (mag) Surface Threshold Offset Overrun Length
09L 150 ft / 46 m 8,987 ft / 2,739 m 90.35° 97.12° Asphalt 577 ft / 176 m 10 ft / 3 m
09R 100 ft / 30 m 5,268 ft / 1,606 m 90.38° 97.15° Asphalt 320 ft / 98 m 0 ft / 0 m
27L 100 ft / 30 m 5,268 ft / 1,606 m 270.39° 277.16° Asphalt 142 ft / 43 m 0 ft / 0 m
27R 150 ft / 46 m 8,987 ft / 2,739 m 270.37° 277.14° Asphalt 604 ft / 184 m 10 ft / 3 m

Approach Navaids

Runway Type Ident Frequency Range Bearing (true) Bearing (mag) Slope Elevation
09L Localiser ILHI 110.10 MHz 18 nm / 33 km 90.37° 97.14° - 5 ft / 2 m (AMSL)
09L Glidescope ILHI 110.10 MHz 10 nm / 19 km 90.36° 97.13° 3.00° 6 ft / 2 m (AMSL)
09L DME ILHI 110.10 MHz 18 nm / 33 km - - - 11 ft / 3 m (AMSL)
09R Localiser IFLL 108.50 MHz 18 nm / 33 km 90.39° 97.15° - 9 ft / 3 m (AMSL)
27R Localiser IUDL 110.70 MHz 18 nm / 33 km 270.36° 277.13° - 5 ft / 2 m (AMSL)
27R Glidescope IUDL 110.70 MHz 10 nm / 19 km 270.36° 277.13° 3.00° 5 ft / 2 m (AMSL)
27R DME IUDL 110.70 MHz 18 nm / 33 km - - - 10 ft / 3 m (AMSL)

Popular Alternatives